createdAt,value
2023-05-14T00:00:35.859Z,10.65
2023-05-14T00:01:35.856Z,10.63
2023-05-14T00:02:35.941Z,10.53
2023-05-14T00:03:35.888Z,10.52
2023-05-14T00:04:35.869Z,10.42
2023-05-14T00:05:35.821Z,10.36
2023-05-14T00:06:35.827Z,10.37
2023-05-14T00:07:36.810Z,10.34
2023-05-14T00:08:35.813Z,10.33
2023-05-14T00:09:35.797Z,10.58
2023-05-14T00:10:35.789Z,10.59
2023-05-14T00:11:35.786Z,10.59
2023-05-14T00:12:35.788Z,10.65
2023-05-14T00:13:35.765Z,10.73
2023-05-14T00:14:35.774Z,10.81
2023-05-14T00:15:35.768Z,10.81
2023-05-14T00:16:35.914Z,10.91
2023-05-14T00:17:35.825Z,10.89
2023-05-14T00:18:35.781Z,10.96
2023-05-14T00:19:35.734Z,10.86
2023-05-14T00:20:35.729Z,11.03
2023-05-14T00:21:35.732Z,10.98
2023-05-14T00:22:35.726Z,10.94
2023-05-14T00:23:35.723Z,10.91
2023-05-14T00:24:35.721Z,10.95
2023-05-14T00:25:35.718Z,10.95
2023-05-14T00:26:35.699Z,10.95
2023-05-14T00:27:35.718Z,11.01
2023-05-14T00:28:35.676Z,10.92
2023-05-14T00:29:35.670Z,10.92
2023-05-14T00:30:35.658Z,10.89
2023-05-14T00:31:35.740Z,10.86
2023-05-14T00:32:35.699Z,10.84
2023-05-14T00:33:35.645Z,10.77
2023-05-14T00:34:35.637Z,10.68
2023-05-14T00:35:35.627Z,10.73
2023-05-14T00:36:35.625Z,10.66
2023-05-14T00:37:35.650Z,10.65
2023-05-14T00:38:35.616Z,10.66
2023-05-14T00:39:35.610Z,10.62
2023-05-14T00:40:35.614Z,10.65
2023-05-14T00:41:35.615Z,10.65
2023-05-14T00:42:35.597Z,10.62
2023-05-14T00:43:35.604Z,10.66
2023-05-14T00:44:35.565Z,10.47
2023-05-14T00:45:35.561Z,10.44
2023-05-14T00:46:35.600Z,10.44
2023-05-14T00:47:35.584Z,10.34
2023-05-14T00:48:35.552Z,10.43
2023-05-14T00:49:35.563Z,10.42
2023-05-14T00:50:35.533Z,10.42
2023-05-14T00:51:35.526Z,10.33
2023-05-14T00:52:35.525Z,10.42
2023-05-14T00:53:35.567Z,10.30
2023-05-14T00:54:35.505Z,10.25
2023-05-14T00:55:35.501Z,10.18
2023-05-14T00:56:35.501Z,10.17
2023-05-14T00:57:35.496Z,10.09
2023-05-14T00:58:35.492Z,10.00
2023-05-14T00:59:35.485Z,10.06
2023-05-14T01:00:35.527Z,10.06
2023-05-14T01:01:35.528Z,10.00
2023-05-14T01:02:35.538Z,9.99
2023-05-14T01:03:35.620Z,10.00
2023-05-14T01:04:35.440Z,9.97
2023-05-14T01:05:35.460Z,10.01
2023-05-14T01:06:35.423Z,9.96
2023-05-14T01:07:35.427Z,10.00
2023-05-14T01:08:35.412Z,9.97
2023-05-14T01:09:35.410Z,10.06
2023-05-14T01:10:35.423Z,9.93
2023-05-14T01:11:35.399Z,9.96
2023-05-14T01:12:35.395Z,9.99
2023-05-14T01:13:35.393Z,10.00
2023-05-14T01:14:35.380Z,9.93
2023-05-14T01:15:35.414Z,10.01
2023-05-14T01:16:35.390Z,10.00
2023-05-14T01:17:35.374Z,9.99
2023-05-14T01:18:35.565Z,9.89
2023-05-14T01:19:35.349Z,9.99
2023-05-14T01:20:35.367Z,9.94
2023-05-14T01:21:35.351Z,9.88
2023-05-14T01:22:35.329Z,9.85
2023-05-14T01:23:35.325Z,9.89
2023-05-14T01:24:35.319Z,9.91
2023-05-14T01:25:35.445Z,9.89
2023-05-14T01:26:35.321Z,9.81
2023-05-14T01:27:35.290Z,9.76
2023-05-14T01:28:35.291Z,9.70
2023-05-14T01:29:35.271Z,9.88
2023-05-14T01:30:35.297Z,9.79
2023-05-14T01:31:35.297Z,9.85
2023-05-14T01:32:35.337Z,9.75
2023-05-14T01:33:35.265Z,9.85
2023-05-14T01:34:35.242Z,9.82
2023-05-14T01:35:35.257Z,9.89
2023-05-14T01:36:35.222Z,9.96
2023-05-14T01:37:35.224Z,9.91
2023-05-14T01:38:35.230Z,9.91
2023-05-14T01:39:35.274Z,9.96
2023-05-14T01:40:35.250Z,10.01
2023-05-14T01:41:35.218Z,10.15
2023-05-14T01:42:35.192Z,10.10
2023-05-14T01:43:35.295Z,10.10
2023-05-14T01:44:35.175Z,10.09
2023-05-14T01:45:35.189Z,10.06
2023-05-14T01:46:35.182Z,10.04
2023-05-14T01:47:35.173Z,10.10
2023-05-14T01:48:35.275Z,10.09
2023-05-14T01:49:35.154Z,10.12
2023-05-14T01:50:35.148Z,9.96
2023-05-14T01:51:35.154Z,9.79
2023-05-14T01:52:35.135Z,9.78
2023-05-14T01:53:35.123Z,9.71
2023-05-14T01:54:35.132Z,9.83
2023-05-14T01:55:35.109Z,9.75
2023-05-14T01:56:35.146Z,9.70
2023-05-14T01:57:35.108Z,9.68
2023-05-14T01:58:35.086Z,9.67
2023-05-14T01:59:35.105Z,9.70
2023-05-14T02:00:35.078Z,9.76
2023-05-14T02:01:35.134Z,9.68
2023-05-14T02:02:35.104Z,9.78
2023-05-14T02:03:35.091Z,9.67
2023-05-14T02:04:35.054Z,9.67
2023-05-14T02:05:35.045Z,9.63
2023-05-14T02:06:35.037Z,9.66
2023-05-14T02:07:35.037Z,9.52
2023-05-14T02:08:35.034Z,9.53
2023-05-14T02:09:35.018Z,9.38
2023-05-14T02:10:35.018Z,9.34
2023-05-14T02:11:35.002Z,9.27
2023-05-14T02:12:35.027Z,9.16
2023-05-14T02:13:35.018Z,9.25
2023-05-14T02:14:34.987Z,9.24
2023-05-14T02:15:35.036Z,9.31
2023-05-14T02:16:34.993Z,9.38
2023-05-14T02:17:35.024Z,9.42
2023-05-14T02:18:34.973Z,9.30
2023-05-14T02:19:34.957Z,9.35
2023-05-14T02:20:35.081Z,9.48
2023-05-14T02:21:34.925Z,9.43
2023-05-14T02:22:34.929Z,9.46
2023-05-14T02:23:41.602Z,9.38
2023-05-14T02:24:36.904Z,9.49
2023-05-14T02:25:34.929Z,9.48
2023-05-14T02:26:34.903Z,9.50
2023-05-14T02:27:34.892Z,9.49
2023-05-14T02:28:34.886Z,9.56
2023-05-14T02:29:34.874Z,9.53
2023-05-14T02:30:34.886Z,9.52
2023-05-14T02:31:34.934Z,9.43
2023-05-14T02:32:34.962Z,9.46
2023-05-14T02:33:34.888Z,9.39
2023-05-14T02:34:34.852Z,9.34
2023-05-14T02:35:34.860Z,9.31
2023-05-14T02:36:34.856Z,9.31
2023-05-14T02:37:34.852Z,9.21
2023-05-14T02:38:34.839Z,9.21
2023-05-14T02:39:34.818Z,9.20
2023-05-14T02:40:34.804Z,9.23
2023-05-14T02:41:34.797Z,9.35
2023-05-14T02:42:35.843Z,9.28
2023-05-14T02:43:34.829Z,9.30
2023-05-14T02:44:34.785Z,9.32
2023-05-14T02:45:34.770Z,9.25
2023-05-14T02:46:34.785Z,9.28
2023-05-14T02:47:37.518Z,9.20
2023-05-14T02:48:34.767Z,9.18
2023-05-14T02:49:34.740Z,9.28
2023-05-14T02:50:34.760Z,9.12
2023-05-14T02:51:34.731Z,9.12
2023-05-14T02:52:34.733Z,9.15
2023-05-14T02:53:34.718Z,9.20
2023-05-14T02:54:34.711Z,9.16
2023-05-14T02:55:34.734Z,9.13
2023-05-14T02:56:34.726Z,9.18
2023-05-14T02:57:34.688Z,9.20
2023-05-14T02:58:34.685Z,9.28
2023-05-14T02:59:34.681Z,9.40
2023-05-14T03:00:34.703Z,9.30
2023-05-14T03:01:34.704Z,9.32
2023-05-14T03:02:34.732Z,9.39
2023-05-14T03:03:34.660Z,9.39
2023-05-14T03:04:34.641Z,9.34
2023-05-14T03:05:34.643Z,9.43
2023-05-14T03:06:34.701Z,9.35
2023-05-14T03:07:34.623Z,9.45
2023-05-14T03:08:34.617Z,9.43
2023-05-14T03:09:36.717Z,9.48
2023-05-14T03:10:34.607Z,9.45
2023-05-14T03:11:34.632Z,9.43
2023-05-14T03:12:34.615Z,9.32
2023-05-14T03:13:34.613Z,9.32
2023-05-14T03:14:34.585Z,9.38
2023-05-14T03:15:34.585Z,9.39
2023-05-14T03:16:34.624Z,9.32
2023-05-14T03:17:34.592Z,9.25
2023-05-14T03:18:34.605Z,9.10
2023-05-14T03:19:34.545Z,9.24
2023-05-14T03:20:34.546Z,9.13
2023-05-14T03:21:34.563Z,9.18
2023-05-14T03:22:34.540Z,9.23
2023-05-14T03:23:34.548Z,9.15
2023-05-14T03:24:34.516Z,9.23
2023-05-14T03:25:34.548Z,9.16
2023-05-14T03:26:34.501Z,9.21
2023-05-14T03:27:34.534Z,9.21
2023-05-14T03:28:34.513Z,9.30
2023-05-14T03:29:34.505Z,9.27
2023-05-14T03:30:34.542Z,9.45
2023-05-14T03:31:34.505Z,9.48
2023-05-14T03:32:34.556Z,9.52
2023-05-14T03:33:34.461Z,9.60
2023-05-14T03:34:34.453Z,9.57
2023-05-14T03:35:34.467Z,9.68
2023-05-14T03:36:34.433Z,9.67
2023-05-14T03:37:34.428Z,9.67
2023-05-14T03:38:34.437Z,9.70
2023-05-14T03:39:34.431Z,9.70
2023-05-14T03:40:34.435Z,9.78
2023-05-14T03:41:34.408Z,9.76
2023-05-14T03:42:34.400Z,9.82
2023-05-14T03:43:34.375Z,9.78
2023-05-14T03:44:34.395Z,9.94
2023-05-14T03:45:34.398Z,9.81
2023-05-14T03:46:34.381Z,9.85
2023-05-14T03:47:34.394Z,9.86
2023-05-14T03:48:34.409Z,9.94
2023-05-14T03:49:34.384Z,9.94
2023-05-14T03:50:35.356Z,10.01
2023-05-14T03:51:34.342Z,10.00
2023-05-14T03:52:34.348Z,9.89
2023-05-14T03:53:34.332Z,9.83
2023-05-14T03:54:34.322Z,9.94
2023-05-14T03:55:34.329Z,9.71
2023-05-14T03:56:34.308Z,9.73
2023-05-14T03:57:34.287Z,9.76
2023-05-14T03:58:34.285Z,9.78
2023-05-14T03:59:34.327Z,9.78
2023-05-14T04:00:34.295Z,9.82
2023-05-14T04:01:34.267Z,9.81
2023-05-14T04:02:34.370Z,9.88
2023-05-14T04:03:34.415Z,9.89
2023-05-14T04:04:34.271Z,9.88
2023-05-14T04:05:34.244Z,9.83
2023-05-14T04:06:34.256Z,9.91
2023-05-14T04:07:34.229Z,9.96
2023-05-14T04:08:34.215Z,9.91
2023-05-14T04:09:34.226Z,9.89
2023-05-14T04:10:34.218Z,10.00
2023-05-14T04:11:34.224Z,10.04
2023-05-14T04:12:34.192Z,10.03
2023-05-14T04:13:34.193Z,10.07
2023-05-14T04:14:35.040Z,10.12
2023-05-14T04:15:34.186Z,10.19
2023-05-14T04:16:34.192Z,10.14
2023-05-14T04:17:35.135Z,10.25
2023-05-14T04:18:35.229Z,10.28
2023-05-14T04:19:34.145Z,10.36
2023-05-14T04:20:34.147Z,10.42
2023-05-14T04:21:34.133Z,10.40
2023-05-14T04:22:34.138Z,10.37
2023-05-14T04:23:34.141Z,10.40
2023-05-14T04:24:34.125Z,10.55
2023-05-14T04:25:34.111Z,10.58
2023-05-14T04:26:34.104Z,10.53
2023-05-14T04:27:34.104Z,10.60
2023-05-14T04:28:34.091Z,10.63
2023-05-14T04:29:34.103Z,10.66
2023-05-14T04:30:34.131Z,10.70
2023-05-14T04:31:34.134Z,10.83
2023-05-14T04:32:34.093Z,10.83
2023-05-14T04:33:34.064Z,10.83
2023-05-14T04:34:34.100Z,10.99
2023-05-14T04:35:34.057Z,10.89
2023-05-14T04:36:34.046Z,10.92
2023-05-14T04:37:34.038Z,10.92
2023-05-14T04:38:34.036Z,10.91
2023-05-14T04:39:34.014Z,11.03
2023-05-14T04:40:34.031Z,10.92
2023-05-14T04:41:33.989Z,10.77
2023-05-14T04:42:33.998Z,10.83
2023-05-14T04:43:34.020Z,10.68
2023-05-14T04:44:33.996Z,10.73
2023-05-14T04:45:34.454Z,10.63
2023-05-14T04:46:35.035Z,10.62
2023-05-14T04:47:34.066Z,10.58
2023-05-14T04:48:33.950Z,10.42
2023-05-14T04:49:33.961Z,10.56
2023-05-14T04:50:33.948Z,10.58
2023-05-14T04:51:33.959Z,10.63
2023-05-14T04:52:33.933Z,10.66
2023-05-14T04:53:33.916Z,10.63
2023-05-14T04:54:33.972Z,10.68
2023-05-14T04:55:33.938Z,10.66
2023-05-14T04:56:33.907Z,10.71
2023-05-14T04:57:33.914Z,10.66
2023-05-14T04:58:35.112Z,10.70
2023-05-14T04:59:34.907Z,10.68
2023-05-14T05:00:33.900Z,10.53
2023-05-14T05:01:33.930Z,10.71
2023-05-14T05:02:33.890Z,10.66
2023-05-14T05:03:33.926Z,10.53
2023-05-14T05:04:34.861Z,10.55
2023-05-14T05:05:33.882Z,10.68
2023-05-14T05:06:33.843Z,10.65
2023-05-14T05:07:33.863Z,10.71
2023-05-14T05:08:33.825Z,10.66
2023-05-14T05:09:33.829Z,10.63
2023-05-14T05:10:33.821Z,10.71
2023-05-14T05:11:33.820Z,10.71
2023-05-14T05:12:33.833Z,10.78
2023-05-14T05:13:33.804Z,10.84
2023-05-14T05:14:33.793Z,10.83
2023-05-14T05:15:33.802Z,10.94
2023-05-14T05:16:33.831Z,10.98
2023-05-14T05:17:33.819Z,10.95
2023-05-14T05:18:33.870Z,10.99
2023-05-14T05:19:43.092Z,10.98
2023-05-14T05:20:35.870Z,10.96
2023-05-14T05:21:33.776Z,10.98
2023-05-14T05:22:33.766Z,10.96
2023-05-14T05:23:33.769Z,11.02
2023-05-14T05:24:33.748Z,11.09
2023-05-14T05:25:33.734Z,11.20
2023-05-14T05:26:33.726Z,11.24
2023-05-14T05:27:33.707Z,11.21
2023-05-14T05:28:33.739Z,11.19
2023-05-14T05:29:33.716Z,11.41
2023-05-14T05:30:33.689Z,11.34
2023-05-14T05:31:33.722Z,11.39
2023-05-14T05:32:33.734Z,11.41
2023-05-14T05:33:33.718Z,11.34
2023-05-14T05:34:33.685Z,11.43
2023-05-14T05:35:33.675Z,11.54
2023-05-14T05:36:33.690Z,11.59
2023-05-14T05:37:33.649Z,11.57
2023-05-14T05:38:33.685Z,11.68
2023-05-14T05:39:33.638Z,11.78
2023-05-14T05:40:33.624Z,11.78
2023-05-14T05:41:33.627Z,11.85
2023-05-14T05:42:33.619Z,11.89
2023-05-14T05:43:33.646Z,11.96
2023-05-14T05:44:33.682Z,11.96
2023-05-14T05:45:33.601Z,11.89
2023-05-14T05:46:33.619Z,11.90
2023-05-14T05:47:33.599Z,11.97
2023-05-14T05:48:33.580Z,11.94
2023-05-14T05:49:33.611Z,12.06
2023-05-14T05:50:33.641Z,12.06
2023-05-14T05:51:33.602Z,12.19
2023-05-14T05:52:33.561Z,12.19
2023-05-14T05:53:33.546Z,12.16
2023-05-14T05:54:33.558Z,12.26
2023-05-14T05:55:33.577Z,12.41
2023-05-14T05:56:33.531Z,12.38
2023-05-14T05:57:33.532Z,12.39
2023-05-14T05:58:33.506Z,12.42
2023-05-14T05:59:33.526Z,12.49
2023-05-14T06:00:33.519Z,12.57
2023-05-14T06:01:33.495Z,12.56
2023-05-14T06:02:33.652Z,12.63
2023-05-14T06:03:33.519Z,12.56
2023-05-14T06:04:33.513Z,12.60
2023-05-14T06:05:33.500Z,12.66
2023-05-14T06:06:34.348Z,12.71
2023-05-14T06:07:33.476Z,12.69
2023-05-14T06:08:33.458Z,12.81
2023-05-14T06:09:33.467Z,12.82
2023-05-14T06:10:33.449Z,12.82
2023-05-14T06:11:33.448Z,12.93
2023-05-14T06:12:33.452Z,13.00
2023-05-14T06:13:33.429Z,13.09
2023-05-14T06:14:33.455Z,13.07
2023-05-14T06:15:33.417Z,13.32
2023-05-14T06:16:33.480Z,13.36
2023-05-14T06:17:33.461Z,13.40
2023-05-14T06:18:33.446Z,13.44
2023-05-14T06:19:33.416Z,13.51
2023-05-14T06:20:33.389Z,13.38
2023-05-14T06:21:33.384Z,13.46
2023-05-14T06:22:33.389Z,13.49
2023-05-14T06:23:33.370Z,13.49
2023-05-14T06:24:33.370Z,13.56
2023-05-14T06:25:33.362Z,13.56
2023-05-14T06:26:33.354Z,13.61
2023-05-14T06:27:33.375Z,13.65
2023-05-14T06:28:33.325Z,13.59
2023-05-14T06:29:33.327Z,13.61
2023-05-14T06:30:33.321Z,13.55
2023-05-14T06:31:33.393Z,13.54
2023-05-14T06:32:33.375Z,13.47
2023-05-14T06:33:33.320Z,13.44
2023-05-14T06:34:33.338Z,13.43
2023-05-14T06:35:33.297Z,13.54
2023-05-14T06:36:33.280Z,13.73
2023-05-14T06:37:33.272Z,13.77
2023-05-14T06:38:33.267Z,13.83
2023-05-14T06:39:33.254Z,13.89
2023-05-14T06:40:33.297Z,14.06
2023-05-14T06:41:33.241Z,14.13
2023-05-14T06:42:33.234Z,14.31
2023-05-14T06:43:33.227Z,14.24
2023-05-14T06:44:33.220Z,14.24
2023-05-14T06:45:33.408Z,14.28
2023-05-14T06:46:33.210Z,14.37
2023-05-14T06:47:33.223Z,14.44
2023-05-14T06:48:33.246Z,14.84
2023-05-14T06:49:33.183Z,14.84
2023-05-14T06:50:33.180Z,15.01
2023-05-14T06:51:33.207Z,15.12
2023-05-14T06:52:33.161Z,15.33
2023-05-14T06:53:33.151Z,15.61
2023-05-14T06:54:33.143Z,15.84
2023-05-14T06:55:33.136Z,15.82
2023-05-14T06:56:33.151Z,16.00
2023-05-14T06:57:33.135Z,16.07
2023-05-14T06:58:33.114Z,16.26
2023-05-14T06:59:33.117Z,16.44
2023-05-14T07:00:33.104Z,16.59
2023-05-14T07:01:33.157Z,16.73
2023-05-14T07:02:33.168Z,16.73
2023-05-14T07:03:33.110Z,16.89
2023-05-14T07:04:33.174Z,17.07
2023-05-14T07:05:33.067Z,17.32
2023-05-14T07:06:33.090Z,17.33
2023-05-14T07:07:33.052Z,17.41
2023-05-14T07:08:33.034Z,17.69
2023-05-14T07:09:33.041Z,17.73
2023-05-14T07:10:33.035Z,17.74
2023-05-14T07:11:33.016Z,17.79
2023-05-14T07:12:33.029Z,17.89
2023-05-14T07:13:33.009Z,17.85
2023-05-14T07:14:32.988Z,18.04
2023-05-14T07:15:32.980Z,18.12
2023-05-14T07:16:33.054Z,18.12
2023-05-14T07:17:33.011Z,18.34
2023-05-14T07:18:33.042Z,18.39
2023-05-14T07:19:32.994Z,18.39
2023-05-14T07:20:32.993Z,18.49
2023-05-14T07:21:32.952Z,18.59
2023-05-14T07:22:32.946Z,18.92
2023-05-14T07:23:32.952Z,19.14
2023-05-14T07:24:32.968Z,19.42
2023-05-14T07:25:32.933Z,19.63
2023-05-14T07:26:32.917Z,19.97
2023-05-14T07:27:32.919Z,20.12
2023-05-14T07:28:33.907Z,20.06
2023-05-14T07:29:32.899Z,20.18
2023-05-14T07:30:32.892Z,20.46
2023-05-14T07:31:32.924Z,20.71
2023-05-14T07:32:32.981Z,21.09
2023-05-14T07:33:32.874Z,21.42
2023-05-14T07:34:32.889Z,21.64
2023-05-14T07:35:32.858Z,21.71
2023-05-14T07:36:32.882Z,21.83
2023-05-14T07:37:32.842Z,21.88
2023-05-14T07:38:32.843Z,21.76
2023-05-14T07:39:32.831Z,21.81
2023-05-14T07:40:32.832Z,21.71
2023-05-14T07:41:32.809Z,21.81
2023-05-14T07:42:36.792Z,21.78
2023-05-14T07:43:33.803Z,21.88
2023-05-14T07:44:32.814Z,21.98
2023-05-14T07:45:32.936Z,21.98
2023-05-14T07:46:32.796Z,22.13
2023-05-14T07:47:33.115Z,22.31
2023-05-14T07:48:32.789Z,22.53
2023-05-14T07:49:32.777Z,22.62
2023-05-14T07:50:32.791Z,22.44
2023-05-14T07:51:33.763Z,22.57
2023-05-14T07:52:32.731Z,22.57
2023-05-14T07:53:32.782Z,22.80
2023-05-14T07:54:32.721Z,22.92
2023-05-14T07:55:32.840Z,22.99
2023-05-14T07:56:32.706Z,23.27
2023-05-14T07:57:32.705Z,23.34
2023-05-14T07:58:32.705Z,23.42
2023-05-14T07:59:32.699Z,23.17
2023-05-14T08:00:32.682Z,23.15
2023-05-14T08:01:32.733Z,23.22
2023-05-14T08:02:32.734Z,23.32
2023-05-14T08:03:32.773Z,23.45
2023-05-14T08:04:32.707Z,23.58
2023-05-14T08:05:32.652Z,23.61
2023-05-14T08:06:32.693Z,23.79
2023-05-14T08:07:32.637Z,23.85
2023-05-14T08:08:32.632Z,23.89
2023-05-14T08:09:32.627Z,23.95
2023-05-14T08:10:32.651Z,23.90
2023-05-14T08:11:32.627Z,23.79
2023-05-14T08:12:32.617Z,23.89
2023-05-14T08:13:32.616Z,23.86
2023-05-14T08:14:32.591Z,23.71
2023-05-14T08:15:32.599Z,23.72
2023-05-14T08:16:32.605Z,23.85
2023-05-14T08:17:32.609Z,23.89
2023-05-14T08:18:32.593Z,23.94
2023-05-14T08:19:32.578Z,24.13
2023-05-14T08:20:32.571Z,24.20
2023-05-14T08:21:32.551Z,24.32
2023-05-14T08:22:32.567Z,24.29
2023-05-14T08:23:32.554Z,24.12
2023-05-14T08:24:32.532Z,24.17
2023-05-14T08:25:32.553Z,24.16
2023-05-14T08:26:32.520Z,24.10
2023-05-14T08:27:32.537Z,24.14
2023-05-14T08:28:32.526Z,24.23
2023-05-14T08:29:32.510Z,24.05
2023-05-14T08:30:32.517Z,23.97
2023-05-14T08:31:32.525Z,24.07
2023-05-14T08:32:32.554Z,24.12
2023-05-14T08:33:32.479Z,24.05
2023-05-14T08:34:32.474Z,24.04
2023-05-14T08:35:32.477Z,24.04
2023-05-14T08:36:32.466Z,24.10
2023-05-14T08:37:32.528Z,24.12
2023-05-14T08:38:32.456Z,24.19
2023-05-14T08:39:32.442Z,24.19
2023-05-14T08:40:32.428Z,24.14
2023-05-14T08:41:32.442Z,24.49
2023-05-14T08:42:32.430Z,25.35
2023-05-14T08:43:32.443Z,25.43
2023-05-14T08:44:32.414Z,25.59
2023-05-14T08:45:32.411Z,25.64
2023-05-14T08:46:32.407Z,25.74
2023-05-14T08:47:32.428Z,25.74
2023-05-14T08:48:32.468Z,25.71
2023-05-14T08:49:32.394Z,25.69
2023-05-14T08:50:32.412Z,26.09
2023-05-14T08:51:32.358Z,26.58
2023-05-14T08:52:32.383Z,26.49
2023-05-14T08:53:32.345Z,26.47
2023-05-14T08:54:32.337Z,27.43
2023-05-14T08:55:32.344Z,28.16
2023-05-14T08:56:32.353Z,29.07
2023-05-14T08:57:32.334Z,29.63
2023-05-14T08:58:32.335Z,29.53
2023-05-14T08:59:32.315Z,29.26
2023-05-14T09:00:32.302Z,29.00
2023-05-14T09:01:32.343Z,28.75
2023-05-14T09:02:32.299Z,28.36
2023-05-14T09:03:32.284Z,28.09
2023-05-14T09:04:32.293Z,27.79
2023-05-14T09:05:33.273Z,27.19
2023-05-14T09:06:32.273Z,26.80
2023-05-14T09:07:32.275Z,26.50
2023-05-14T09:08:32.261Z,26.35
2023-05-14T09:09:32.247Z,26.37
2023-05-14T09:10:32.261Z,26.28
2023-05-14T09:11:32.229Z,26.22
2023-05-14T09:12:32.222Z,26.08
2023-05-14T09:13:32.233Z,26.05
2023-05-14T09:14:33.287Z,26.02
2023-05-14T09:15:32.258Z,25.94
2023-05-14T09:16:32.262Z,25.75
2023-05-14T09:17:32.492Z,25.72
2023-05-14T09:18:32.211Z,25.75
2023-05-14T09:19:32.183Z,26.11
2023-05-14T09:20:32.207Z,26.29
2023-05-14T09:21:33.549Z,26.50
2023-05-14T09:22:33.185Z,26.50
2023-05-14T09:23:32.191Z,26.65
2023-05-14T09:24:32.176Z,26.84
2023-05-14T09:25:32.136Z,26.92
2023-05-14T09:26:32.173Z,27.02
2023-05-14T09:27:32.136Z,26.94
2023-05-14T09:28:32.131Z,26.94
2023-05-14T09:29:32.128Z,27.16
2023-05-14T09:30:32.107Z,27.28
2023-05-14T09:31:32.143Z,27.16
2023-05-14T09:32:32.121Z,27.29
2023-05-14T09:33:32.094Z,27.51
2023-05-14T09:34:32.102Z,28.53
2023-05-14T09:35:32.108Z,29.13
2023-05-14T09:36:32.075Z,28.65
2023-05-14T09:37:32.071Z,28.07
2023-05-14T09:38:32.063Z,27.82
2023-05-14T09:39:32.058Z,27.48
2023-05-14T09:40:32.054Z,27.17
2023-05-14T09:41:32.049Z,27.13
2023-05-14T09:42:32.062Z,27.84
2023-05-14T09:43:32.030Z,28.88
2023-05-14T09:44:32.037Z,29.52
2023-05-14T09:45:32.018Z,28.95
2023-05-14T09:46:32.009Z,28.51
2023-05-14T09:47:32.051Z,28.25
2023-05-14T09:48:32.055Z,27.94
2023-05-14T09:49:32.001Z,27.70
2023-05-14T09:50:31.987Z,27.71
2023-05-14T09:51:31.980Z,28.68
2023-05-14T09:52:31.983Z,29.56
2023-05-14T09:53:31.965Z,29.82
2023-05-14T09:54:31.975Z,29.16
2023-05-14T09:55:31.950Z,28.75
2023-05-14T09:56:31.947Z,29.04
2023-05-14T09:57:31.941Z,30.11
2023-05-14T09:58:31.934Z,30.67
2023-05-14T09:59:31.921Z,30.40
2023-05-14T10:00:31.915Z,29.72
2023-05-14T10:01:31.930Z,29.92
2023-05-14T10:02:31.948Z,30.26
2023-05-14T10:03:31.915Z,30.67
2023-05-14T10:04:31.896Z,30.31
2023-05-14T10:05:31.883Z,30.03
2023-05-14T10:06:31.870Z,29.52
2023-05-14T10:07:31.861Z,29.62
2023-05-14T10:08:31.876Z,29.04
2023-05-14T10:09:31.864Z,28.50
2023-05-14T10:10:31.869Z,28.62
2023-05-14T10:11:31.847Z,28.91
2023-05-14T10:12:31.837Z,29.25
2023-05-14T10:13:31.876Z,29.13
2023-05-14T10:14:31.831Z,29.26
2023-05-14T10:15:31.834Z,29.25
2023-05-14T10:16:31.851Z,28.69
2023-05-14T10:17:31.850Z,28.33
2023-05-14T10:18:31.837Z,27.74
2023-05-14T10:19:31.799Z,27.77
2023-05-14T10:20:31.806Z,27.42
2023-05-14T10:21:31.824Z,27.32
2023-05-14T10:22:31.796Z,27.41
2023-05-14T10:23:31.777Z,27.79
2023-05-14T10:24:31.782Z,27.95
2023-05-14T10:25:31.792Z,27.77
2023-05-14T10:26:31.764Z,27.82
2023-05-14T10:27:31.763Z,27.80
2023-05-14T10:28:31.744Z,27.67
2023-05-14T10:29:31.742Z,27.62
2023-05-14T10:30:31.731Z,27.82
2023-05-14T10:31:31.761Z,28.31
2023-05-14T10:32:31.760Z,28.50
2023-05-14T10:33:31.719Z,29.06
2023-05-14T10:34:31.750Z,28.17
2023-05-14T10:35:31.703Z,27.73
2023-05-14T10:36:31.679Z,27.17
2023-05-14T10:37:32.698Z,27.23
2023-05-14T10:38:31.679Z,27.47
2023-05-14T10:39:31.686Z,28.28
2023-05-14T10:40:31.672Z,28.50
2023-05-14T10:41:31.671Z,29.10
2023-05-14T10:42:31.836Z,29.89
2023-05-14T10:43:31.647Z,30.23
2023-05-14T10:44:31.666Z,31.01
2023-05-14T10:45:32.634Z,30.50
2023-05-14T10:46:31.690Z,30.68
2023-05-14T10:47:31.691Z,31.06
2023-05-14T10:48:31.625Z,30.86
2023-05-14T10:49:42.858Z,30.31
2023-05-14T10:50:33.613Z,30.65
2023-05-14T10:51:31.699Z,30.98
2023-05-14T10:52:31.615Z,31.09
2023-05-14T10:53:31.589Z,31.15
2023-05-14T10:54:31.592Z,31.33
2023-05-14T10:55:31.584Z,31.91
2023-05-14T10:56:31.558Z,31.43
2023-05-14T10:57:31.588Z,31.11
2023-05-14T10:58:31.823Z,30.91
2023-05-14T10:59:31.554Z,30.84
2023-05-14T11:00:31.559Z,30.54
2023-05-14T11:01:31.571Z,30.16
2023-05-14T11:02:31.568Z,29.84
2023-05-14T11:03:31.570Z,29.79
2023-05-14T11:04:31.601Z,30.19
2023-05-14T11:05:31.526Z,30.54
2023-05-14T11:06:31.521Z,30.69
2023-05-14T11:07:31.510Z,31.13
2023-05-14T11:08:31.508Z,31.84
2023-05-14T11:09:31.513Z,32.10
2023-05-14T11:10:31.518Z,31.92
2023-05-14T11:11:31.489Z,31.53
2023-05-14T11:12:31.481Z,30.90
2023-05-14T11:13:31.470Z,30.68
2023-05-14T11:14:31.466Z,31.08
2023-05-14T11:15:31.485Z,31.26
2023-05-14T11:16:31.506Z,30.91
2023-05-14T11:17:31.469Z,30.59
2023-05-14T11:18:31.525Z,30.56
2023-05-14T11:19:31.456Z,30.75
2023-05-14T11:20:31.489Z,30.89
2023-05-14T11:21:31.498Z,31.42
2023-05-14T11:22:31.430Z,31.54
2023-05-14T11:23:31.433Z,31.23
2023-05-14T11:24:31.432Z,30.54
2023-05-14T11:25:31.419Z,29.84
2023-05-14T11:26:31.449Z,29.82
2023-05-14T11:27:31.417Z,29.56
2023-05-14T11:28:31.406Z,29.37
2023-05-14T11:29:31.376Z,29.11
2023-05-14T11:30:31.404Z,28.80
2023-05-14T11:31:31.511Z,28.56
2023-05-14T11:32:31.372Z,28.36
2023-05-14T11:33:31.374Z,27.99
2023-05-14T11:34:31.377Z,27.74
2023-05-14T11:35:31.392Z,27.53
2023-05-14T11:36:31.354Z,27.42
2023-05-14T11:37:31.344Z,27.39
2023-05-14T11:38:31.347Z,27.28
2023-05-14T11:39:31.335Z,27.21
2023-05-14T11:40:31.334Z,27.21
2023-05-14T11:41:31.327Z,26.89
2023-05-14T11:42:31.322Z,26.62
2023-05-14T11:43:31.332Z,26.49
2023-05-14T11:44:31.311Z,26.42
2023-05-14T11:45:31.320Z,26.36
2023-05-14T11:46:31.422Z,26.28
2023-05-14T11:47:31.322Z,26.24
2023-05-14T11:48:31.278Z,26.36
2023-05-14T11:49:31.266Z,26.44
2023-05-14T11:50:31.291Z,26.65
2023-05-14T11:51:31.268Z,26.50
2023-05-14T11:52:31.250Z,26.52
2023-05-14T11:53:31.249Z,26.46
2023-05-14T11:54:31.243Z,26.44
2023-05-14T11:55:31.257Z,26.46
2023-05-14T11:56:31.285Z,26.67
2023-05-14T11:57:31.231Z,26.92
2023-05-14T11:58:31.293Z,26.84
2023-05-14T11:59:31.205Z,26.95
2023-05-14T12:00:31.198Z,27.46
2023-05-14T12:01:31.229Z,27.80
2023-05-14T12:02:31.343Z,28.32
2023-05-14T12:03:31.232Z,28.46
2023-05-14T12:04:31.260Z,28.82
2023-05-14T12:05:31.161Z,29.15
2023-05-14T12:06:31.157Z,29.63
2023-05-14T12:07:31.158Z,29.89
2023-05-14T12:08:31.155Z,29.86
2023-05-14T12:09:31.142Z,30.33
2023-05-14T12:10:31.131Z,30.54
2023-05-14T12:11:31.191Z,30.54
2023-05-14T12:12:31.137Z,30.75
2023-05-14T12:13:31.126Z,30.90
2023-05-14T12:14:31.116Z,31.05
2023-05-14T12:15:31.107Z,31.02
2023-05-14T12:16:31.251Z,31.05
2023-05-14T12:17:31.909Z,31.17
2023-05-14T12:18:31.300Z,31.58
2023-05-14T12:19:31.101Z,31.84
2023-05-14T12:20:31.096Z,32.00
2023-05-14T12:21:31.053Z,32.07
2023-05-14T12:22:31.060Z,32.02
2023-05-14T12:23:31.050Z,32.15
2023-05-14T12:24:31.040Z,32.15
2023-05-14T12:25:31.035Z,32.15
2023-05-14T12:26:31.060Z,32.24
2023-05-14T12:27:31.083Z,32.18
2023-05-14T12:28:31.032Z,31.92
2023-05-14T12:29:31.022Z,31.65
2023-05-14T12:30:31.016Z,31.26
2023-05-14T12:31:31.022Z,30.98
2023-05-14T12:32:31.025Z,30.61
2023-05-14T12:33:30.994Z,29.94
2023-05-14T12:34:30.971Z,29.41
2023-05-14T12:35:30.973Z,29.04
2023-05-14T12:36:30.995Z,28.87
2023-05-14T12:37:31.383Z,28.70
2023-05-14T12:38:31.958Z,28.29
2023-05-14T12:39:30.949Z,27.98
2023-05-14T12:40:30.933Z,27.50
2023-05-14T12:41:30.923Z,26.87
2023-05-14T12:42:30.925Z,26.25
2023-05-14T12:43:30.938Z,25.34
2023-05-14T12:44:30.919Z,24.77
2023-05-14T12:45:30.914Z,24.24
2023-05-14T12:46:30.920Z,24.34
2023-05-14T12:47:30.911Z,24.64
2023-05-14T12:48:30.883Z,24.94
2023-05-14T12:49:30.894Z,25.24
2023-05-14T12:50:30.914Z,25.59
2023-05-14T12:51:30.867Z,25.91
2023-05-14T12:52:37.731Z,26.24
2023-05-14T12:53:32.869Z,26.61
2023-05-14T12:54:30.858Z,26.96
2023-05-14T12:55:30.849Z,27.39
2023-05-14T12:56:30.886Z,28.16
2023-05-14T12:57:30.834Z,28.36
2023-05-14T12:58:30.823Z,28.87